Time;durP1;ratioP1;P1;durP2;ratioP2;P2;SDS_P1;SDS_P2;PMS_P1;PMS_P2;Temp;Humidity;BMP_temperature;BMP_pressure;BME280_temperature;BME280_humidity;BME280_pressure;Samples;Min_cycle;Max_cycle;Signal;HPM_P1;HPM_P2
2023/09/27 00:00:13;;;;;;;11.68;9.77;;;;;;;11.88;54.97;101942.25;5021500;28;20112;-68
2023/09/27 00:02:39;;;;;;;10.98;8.95;;;;;;;11.90;54.93;101946.59;5024189;28;20102;-68
2023/09/27 00:05:06;;;;;;;12.75;10.25;;;;;;;11.82;54.98;101937.22;5020063;28;20064;-68
2023/09/27 00:07:36;;;;;;;17.67;11.23;;;;;;;11.86;55.19;101936.19;5011003;28;20143;-69
2023/09/27 00:10:03;;;;;;;15.82;10.40;;;;;;;11.86;54.87;101936.19;5019539;28;20037;-68
2023/09/27 00:12:28;;;;;;;15.02;10.95;;;;;;;11.76;55.20;101931.25;5027694;28;20487;-69
2023/09/27 00:14:55;;;;;;;15.50;11.25;;;;;;;11.72;55.61;101937.47;5025666;28;20048;-69
2023/09/27 00:17:22;;;;;;;15.65;11.75;;;;;;;11.68;55.70;101929.69;5023487;28;20095;-69
2023/09/27 00:19:47;;;;;;;16.48;11.75;;;;;;;11.67;55.93;101929.75;5025243;28;20064;-71
2023/09/27 00:22:13;;;;;;;14.85;11.13;;;;;;;11.69;56.04;101938.41;5019974;28;20124;-69
2023/09/27 00:24:39;;;;;;;15.85;11.48;;;;;;;11.72;55.54;101946.19;5025519;28;20786;-69
2023/09/27 00:27:05;;;;;;;14.82;11.75;;;;;;;11.67;55.51;101948.06;5019244;28;20036;-71
2023/09/27 00:29:30;;;;;;;14.85;11.32;;;;;;;11.67;55.38;101935.84;5023676;28;20098;-69
2023/09/27 00:31:56;;;;;;;21.98;13.25;;;;;;;11.57;55.83;101917.78;5024251;28;20495;-69
2023/09/27 00:34:22;;;;;;;20.75;12.65;;;;;;;11.53;55.94;101921.38;5038984;28;20025;-69
2023/09/27 00:36:49;;;;;;;17.55;12.32;;;;;;;11.56;55.74;101922.19;5024872;28;20656;-69
2023/09/27 00:39:15;;;;;;;15.00;11.73;;;;;;;11.55;55.56;101936.16;5019442;28;20155;-69
2023/09/27 00:41:40;;;;;;;16.42;11.70;;;;;;;11.57;55.60;101944.81;5027336;28;20239;-69
2023/09/27 00:44:06;;;;;;;17.73;11.75;;;;;;;11.58;55.29;101948.31;5018438;28;20057;-69
2023/09/27 00:46:32;;;;;;;14.73;10.82;;;;;;;11.57;55.44;101943.97;5043171;28;20040;-69
2023/09/27 00:48:58;;;;;;;13.18;10.50;;;;;;;11.57;55.42;101946.59;5024602;28;20037;-70
2023/09/27 00:51:26;;;;;;;16.42;12.25;;;;;;;11.52;55.76;101956.34;5022145;28;20033;-67
2023/09/27 00:53:54;;;;;;;16.63;11.45;;;;;;;11.50;55.74;101955.53;5022796;28;20123;-67
2023/09/27 00:56:20;;;;;;;18.38;11.05;;;;;;;11.48;55.50;101944.22;5019011;28;20036;-68
2023/09/27 00:58:47;;;;;;;16.35;13.40;;;;;;;11.48;55.35;101939.00;5020903;28;20075;-67
2023/09/27 01:01:13;;;;;;;15.27;12.18;;;;;;;11.48;55.38;101936.38;5024914;28;20491;-67
2023/09/27 01:03:39;;;;;;;19.83;13.82;;;;;;;11.42;55.41;101940.88;5022150;28;20047;-67
2023/09/27 01:06:05;;;;;;;17.48;12.30;;;;;;;11.40;55.48;101941.81;5023814;28;20029;-67
2023/09/27 01:08:30;;;;;;;15.80;11.07;;;;;;;11.36;55.61;101948.88;5023752;28;20049;-67
2023/09/27 01:10:56;;;;;;;16.25;12.65;;;;;;;11.38;55.50;101949.72;5024040;28;20064;-67
2023/09/27 01:13:22;;;;;;;17.92;12.27;;;;;;;11.33;55.70;101946.38;5032949;28;20041;-66
2023/09/27 01:15:48;;;;;;;18.55;13.82;;;;;;;11.29;55.78;101944.72;5027808;28;20168;-68
2023/09/27 01:18:15;;;;;;;19.45;13.30;;;;;;;11.30;56.01;101949.03;5028956;28;20268;-67
2023/09/27 01:20:40;;;;;;;22.38;13.40;;;;;;;11.29;55.91;101949.09;5022189;28;20095;-68
2023/09/27 01:23:06;;;;;;;19.50;13.60;;;;;;;11.29;55.91;101949.97;5032252;28;21278;-69
2023/09/27 01:25:34;;;;;;;19.88;14.95;;;;;;;11.28;56.16;101950.84;5023768;28;20033;-70
2023/09/27 01:28:09;;;;;;;18.83;14.50;;;;;;;11.29;56.19;101955.19;5019371;28;20039;-69
2023/09/27 01:30:36;;;;;;;23.23;15.00;;;;;;;11.28;56.19;101948.22;5024352;28;20552;-69
2023/09/27 01:33:05;;;;;;;23.80;15.65;;;;;;;11.30;56.55;101951.66;5020740;28;20473;-68
2023/09/27 01:35:41;;;;;;;20.42;15.38;;;;;;;11.32;56.65;101949.88;5024549;28;20670;-65
2023/09/27 01:38:08;;;;;;;23.67;16.55;;;;;;;11.33;56.39;101946.38;5015458;28;20056;-66
2023/09/27 01:40:44;;;;;;;21.08;15.82;;;;;;;11.39;56.39;101950.56;5026767;28;20033;-68
2023/09/27 01:43:11;;;;;;;25.88;16.73;;;;;;;11.37;56.50;101942.75;5016645;28;20106;-68
2023/09/27 01:45:39;;;;;;;20.50;15.00;;;;;;;11.35;56.52;101939.34;5027879;28;20079;-69
2023/09/27 01:48:05;;;;;;;24.65;16.65;;;;;;;11.33;56.69;101940.25;5019099;28;20041;-69
2023/09/27 01:50:35;;;;;;;23.45;16.10;;;;;;;11.32;56.72;101943.78;5036748;28;20048;-69
2023/09/27 01:53:00;;;;;;;19.63;14.30;;;;;;;11.29;56.83;101960.41;5025023;28;20186;-67
2023/09/27 01:55:26;;;;;;;22.35;13.98;;;;;;;11.29;56.51;101964.81;5018023;28;20068;-69
2023/09/27 01:57:52;;;;;;;20.33;15.35;;;;;;;11.30;56.50;101964.75;5009444;28;20383;-65
2023/09/27 02:00:19;;;;;;;19.17;14.95;;;;;;;11.25;56.69;101950.94;5021992;28;20041;-65
2023/09/27 02:02:51;;;;;;;26.88;18.00;;;;;;;11.21;56.82;101941.44;5016883;28;20577;-65
2023/09/27 02:05:17;;;;;;;24.83;17.90;;;;;;;11.19;57.14;101948.47;5008130;28;20094;-66
2023/09/27 02:07:43;;;;;;;22.90;16.38;;;;;;;11.18;56.93;101942.38;5022369;28;20813;-65
2023/09/27 02:10:10;;;;;;;18.63;14.32;;;;;;;11.22;56.67;101948.41;5039544;28;20037;-69
2023/09/27 02:12:39;;;;;;;24.85;14.82;;;;;;;11.21;56.76;101951.91;5025650;28;20052;-69
2023/09/27 02:15:08;;;;;;;24.52;16.90;;;;;;;11.24;56.72;101952.69;5033781;28;20025;-70
2023/09/27 02:17:38;;;;;;;23.17;16.20;;;;;;;11.35;56.42;101954.16;5024620;28;20116;-69
2023/09/27 02:20:07;;;;;;;25.95;16.88;;;;;;;11.32;56.89;101939.41;5002468;28;20057;-68
2023/09/27 02:22:36;;;;;;;25.10;16.27;;;;;;;11.38;56.70;101949.72;5008575;28;20032;-67
2023/09/27 02:25:02;;;;;;;19.80;15.65;;;;;;;11.40;56.35;101955.75;5024171;28;20091;-68
2023/09/27 02:27:28;;;;;;;24.95;16.70;;;;;;;11.36;56.33;101961.13;5015770;28;20120;-67
2023/09/27 02:29:53;;;;;;;20.17;15.30;;;;;;;11.39;56.28;101961.03;5024153;28;20117;-66
2023/09/27 02:32:19;;;;;;;21.85;15.88;;;;;;;11.40;56.25;101968.84;5020632;28;20138;-67
2023/09/27 02:34:45;;;;;;;27.13;18.25;;;;;;;11.39;56.50;101972.34;5004441;28;20153;-68
2023/09/27 02:37:10;;;;;;;27.80;19.00;;;;;;;11.37;56.75;101968.91;5040445;28;20125;-66
2023/09/27 02:39:36;;;;;;;22.85;14.52;;;;;;;11.41;56.34;101970.56;5027129;28;20118;-67
2023/09/27 02:42:03;;;;;;;20.02;15.10;;;;;;;11.44;56.39;101964.38;5019103;28;20080;-70
2023/09/27 02:44:28;;;;;;;24.92;15.52;;;;;;;11.40;56.34;101968.84;5003424;28;20503;-69
2023/09/27 02:46:58;;;;;;;23.13;15.43;;;;;;;11.33;56.37;101962.06;5023066;28;20040;-68
2023/09/27 02:49:23;;;;;;;23.15;15.82;;;;;;;11.32;56.24;101955.09;5017788;28;20869;-68
2023/09/27 02:51:51;;;;;;;22.05;15.90;;;;;;;11.33;56.42;101951.59;5023983;28;20110;-73
2023/09/27 02:54:18;;;;;;;26.45;17.42;;;;;;;11.24;56.50;101946.56;5035963;28;20507;-72
2023/09/27 02:56:43;;;;;;;24.55;16.88;;;;;;;11.28;56.28;101952.59;5022842;28;20033;-73
2023/09/27 02:59:11;;;;;;;24.88;15.77;;;;;;;11.32;56.57;101960.34;5033442;28;20527;-70
2023/09/27 03:01:40;;;;;;;26.55;17.88;;;;;;;11.35;56.53;101956.78;5019737;28;20029;-70
2023/09/27 03:04:06;;;;;;;19.98;15.30;;;;;;;11.38;56.12;101957.56;5022289;28;20456;-68
2023/09/27 03:06:33;;;;;;;27.55;17.45;;;;;;;11.37;56.35;101947.13;5025797;28;20692;-70
2023/09/27 03:08:58;;;;;;;22.80;16.33;;;;;;;11.31;56.49;101944.66;5021569;28;20507;-68
2023/09/27 03:11:24;;;;;;;22.73;15.75;;;;;;;11.27;56.54;101943.03;5021634;28;20117;-69
2023/09/27 03:13:50;;;;;;;22.65;16.63;;;;;;;11.24;56.81;101943.97;5022698;28;20037;-69
2023/09/27 03:16:16;;;;;;;25.80;17.35;;;;;;;11.28;56.58;101942.13;5032872;28;20493;-67
2023/09/27 03:18:42;;;;;;;23.38;16.60;;;;;;;11.33;56.62;101945.47;5036777;28;20080;-67
2023/09/27 03:21:10;;;;;;;25.23;16.38;;;;;;;11.31;56.47;101952.50;5039869;28;20041;-66
2023/09/27 03:23:36;;;;;;;26.13;18.20;;;;;;;11.28;56.48;101956.06;4998388;28;20110;-66
2023/09/27 03:26:04;;;;;;;20.35;14.82;;;;;;;11.27;56.56;101954.38;5021630;28;20025;-67
2023/09/27 03:28:30;;;;;;;21.40;14.43;;;;;;;11.25;56.37;101954.41;5019513;28;20664;-69
2023/09/27 03:30:57;;;;;;;22.33;16.45;;;;;;;11.27;56.20;101949.13;5004814;28;20148;-69
2023/09/27 03:33:23;;;;;;;25.00;17.35;;;;;;;11.18;56.51;101946.75;5018047;28;20052;-69
2023/09/27 03:35:49;;;;;;;24.98;18.08;;;;;;;11.13;56.69;101939.03;5007000;28;20036;-67
2023/09/27 03:38:15;;;;;;;29.40;19.30;;;;;;;11.05;57.06;101947.06;5020066;28;20123;-71
2023/09/27 03:40:41;;;;;;;26.02;17.25;;;;;;;11.02;57.19;101941.91;5037613;28;20033;-69
2023/09/27 03:43:06;;;;;;;29.20;19.08;;;;;;;11.03;57.33;101943.59;5020716;28;20045;-71
2023/09/27 03:45:37;;;;;;;23.10;16.45;;;;;;;11.08;56.84;101940.88;5007565;28;20550;-68
2023/09/27 03:48:06;;;;;;;22.75;17.13;;;;;;;11.07;56.93;101951.41;5039838;28;20048;-71
2023/09/27 03:50:31;;;;;;;26.58;17.67;;;;;;;11.02;56.96;101949.75;5025122;28;20918;-72
2023/09/27 03:52:59;;;;;;;28.10;18.50;;;;;;;10.98;57.13;101955.94;5010816;28;20041;-69
2023/09/27 03:55:25;;;;;;;26.67;17.73;;;;;;;10.99;57.04;101951.56;5021385;28;20107;-70
2023/09/27 03:57:54;;;;;;;25.08;16.90;;;;;;;10.97;57.27;101958.59;5026433;28;20044;-69
2023/09/27 04:00:19;;;;;;;26.35;18.15;;;;;;;10.93;57.19;101955.22;5037477;28;20028;-69
2023/09/27 04:02:47;;;;;;;27.50;18.58;;;;;;;10.91;57.25;101951.78;5027292;28;20048;-70
2023/09/27 04:05:14;;;;;;;27.50;17.70;;;;;;;10.88;57.12;101949.22;5021705;28;20041;-69
2023/09/27 04:07:41;;;;;;;25.80;17.90;;;;;;;10.87;57.21;101942.28;5021750;28;20037;-67
2023/09/27 04:10:10;;;;;;;31.75;20.95;;;;;;;10.85;57.72;101933.59;5029271;28;20112;-68
2023/09/27 04:12:36;;;;;;;29.70;19.70;;;;;;;10.80;57.82;101933.69;5022261;28;20411;-69
2023/09/27 04:15:02;;;;;;;26.58;18.05;;;;;;;10.82;57.47;101938.91;5025206;28;20056;-71
2023/09/27 04:17:28;;;;;;;27.88;17.83;;;;;;;10.88;56.93;101941.38;5020305;28;20037;-69
2023/09/27 04:19:55;;;;;;;27.98;17.33;;;;;;;10.93;57.06;101947.38;5023675;28;20043;-68
2023/09/27 04:22:20;;;;;;;24.38;16.65;;;;;;;10.88;57.02;101948.38;5023211;28;20048;-69
2023/09/27 04:24:46;;;;;;;22.50;15.75;;;;;;;10.85;57.19;101957.16;5037532;28;20083;-69
2023/09/27 04:27:12;;;;;;;24.50;17.23;;;;;;;10.83;57.08;101958.94;5025709;28;20035;-69
2023/09/27 04:29:37;;;;;;;26.10;18.00;;;;;;;10.88;57.21;101962.28;5022895;28;20102;-69
2023/09/27 04:32:04;;;;;;;30.08;17.98;;;;;;;10.87;56.92;101968.44;5023838;28;20037;-69
2023/09/27 04:34:29;;;;;;;27.45;18.30;;;;;;;10.82;57.27;101959.84;5017727;28;20021;-69
2023/09/27 04:36:55;;;;;;;31.75;18.98;;;;;;;10.80;57.25;101961.59;5041977;28;20041;-68
2023/09/27 04:39:20;;;;;;;24.90;16.17;;;;;;;10.85;57.03;101965.00;5033936;28;20033;-68
2023/09/27 04:41:46;;;;;;;25.98;16.33;;;;;;;10.84;57.19;101969.38;5025489;28;20029;-67
2023/09/27 04:44:15;;;;;;;27.08;18.02;;;;;;;10.78;57.13;101968.63;5023540;28;20128;-67
2023/09/27 04:46:41;;;;;;;26.60;18.40;;;;;;;10.78;57.43;101968.63;5027299;28;20052;-68
2023/09/27 04:49:07;;;;;;;27.20;16.27;;;;;;;10.82;57.38;101968.53;5021248;28;20045;-69
2023/09/27 04:51:35;;;;;;;25.77;18.35;;;;;;;10.86;57.13;101966.72;5019644;28;21542;-68
2023/09/27 04:54:03;;;;;;;29.95;18.55;;;;;;;10.87;57.03;101965.81;5022786;28;20586;-67
2023/09/27 04:56:29;;;;;;;25.25;16.52;;;;;;;10.90;57.14;101965.72;5018524;28;20037;-68
2023/09/27 04:58:56;;;;;;;30.92;18.88;;;;;;;10.89;57.16;101977.09;5023906;28;20518;-69
2023/09/27 05:01:22;;;;;;;27.60;18.23;;;;;;;10.87;57.23;101970.19;5019848;28;20116;-69
2023/09/27 05:03:49;;;;;;;29.30;18.60;;;;;;;10.84;57.38;101968.53;5002465;28;20094;-68
2023/09/27 05:06:15;;;;;;;30.80;19.85;;;;;;;10.79;57.37;101963.38;5019819;28;20044;-68
2023/09/27 05:08:40;;;;;;;30.10;19.77;;;;;;;10.79;57.52;101962.47;5022436;28;20048;-68
2023/09/27 05:11:06;;;;;;;27.45;18.70;;;;;;;10.77;57.72;101956.44;5028912;28;20029;-69
2023/09/27 05:13:32;;;;;;;29.77;19.73;;;;;;;10.75;57.66;101964.34;5031839;28;20041;-69
2023/09/27 05:15:57;;;;;;;26.90;18.92;;;;;;;10.73;57.85;101962.66;5039211;28;20503;-67
2023/09/27 05:18:23;;;;;;;29.90;20.60;;;;;;;10.71;57.51;101964.44;5020383;28;20628;-68
2023/09/27 05:20:48;;;;;;;30.20;20.98;;;;;;;10.70;57.70;101962.69;5023697;28;20060;-66
2023/09/27 05:23:14;;;;;;;32.08;18.90;;;;;;;10.73;57.88;101960.03;5021699;28;20680;-66
2023/09/27 05:25:40;;;;;;;26.50;17.35;;;;;;;10.74;57.75;101956.50;5022004;28;20040;-66
2023/09/27 05:28:05;;;;;;;28.52;18.05;;;;;;;10.77;57.81;101969.50;5022087;28;20036;-68
2023/09/27 05:30:31;;;;;;;25.17;16.15;;;;;;;10.85;57.73;101975.44;5017188;28;20068;-68
2023/09/27 05:32:57;;;;;;;26.05;17.70;;;;;;;10.85;57.42;101965.00;5021463;28;20049;-69
2023/09/27 05:35:23;;;;;;;31.27;19.85;;;;;;;10.85;57.49;101965.00;5017240;28;20035;-66
2023/09/27 05:37:50;;;;;;;28.70;19.25;;;;;;;10.90;57.71;101967.50;5019532;28;20641;-66
2023/09/27 05:40:16;;;;;;;25.20;17.60;;;;;;;11.00;57.18;101979.47;5022429;28;20028;-66
2023/09/27 05:42:42;;;;;;;26.80;17.90;;;;;;;11.10;56.93;101987.94;5026179;28;20144;-66
2023/09/27 05:45:11;;;;;;;28.02;18.75;;;;;;;11.17;56.94;101998.25;5037215;28;20032;-69
2023/09/27 05:47:37;;;;;;;30.02;18.73;;;;;;;11.19;57.00;102003.41;5030650;28;21397;-67
2023/09/27 05:50:04;;;;;;;30.05;21.00;;;;;;;11.24;57.15;102001.53;5024420;28;20037;-66
2023/09/27 05:52:30;;;;;;;36.15;21.75;;;;;;;11.33;57.16;102013.53;5017605;28;20053;-66
2023/09/27 05:54:56;;;;;;;30.00;21.42;;;;;;;11.52;56.83;102009.56;5020049;28;20249;-66
2023/09/27 05:57:22;;;;;;;35.90;22.90;;;;;;;11.63;56.43;102019.75;5020169;28;20668;-68
2023/09/27 05:59:48;;;;;;;32.70;21.38;;;;;;;11.55;56.83;102024.31;5024432;28;20061;-69
2023/09/27 06:02:17;;;;;;;28.10;19.67;;;;;;;11.85;56.06;102020.94;5021158;28;20072;-68
2023/09/27 06:04:44;;;;;;;28.35;18.95;;;;;;;12.02;55.65;102030.97;5023122;28;20033;-71
2023/09/27 06:07:13;;;;;;;34.03;20.33;;;;;;;12.20;55.34;102037.44;5020274;28;20029;-68
2023/09/27 06:09:43;;;;;;;30.98;20.27;;;;;;;12.32;54.88;102046.72;5017949;28;20290;-70
2023/09/27 06:12:12;;;;;;;26.48;19.15;;;;;;;12.50;54.49;102037.44;5024306;28;20033;-70
2023/09/27 06:14:46;;;;;;;26.42;18.40;;;;;;;12.69;54.50;102033.41;5036174;28;20357;-69
2023/09/27 06:17:15;;;;;;;33.33;20.90;;;;;;;12.64;54.36;102032.63;5022618;28;20143;-70
2023/09/27 06:19:41;;;;;;;31.30;18.88;;;;;;;12.91;53.92;102045.84;5015095;28;20033;-69
2023/09/27 06:22:06;;;;;;;27.73;20.38;;;;;;;13.81;51.63;102046.41;5020219;28;20484;-70
2023/09/27 06:24:32;;;;;;;28.90;20.08;;;;;;;15.45;49.99;102037.50;5018490;28;20029;-69
2023/09/27 06:26:59;;;;;;;23.15;16.77;;;;;;;16.45;45.57;102041.03;5019176;28;20036;-69
2023/09/27 06:29:25;;;;;;;24.65;17.60;;;;;;;18.03;42.72;102050.88;5004825;28;20033;-69
2023/09/27 06:31:51;;;;;;;23.80;15.73;;;;;;;18.94;40.47;102045.94;5018542;28;20036;-68
2023/09/27 06:34:17;;;;;;;21.77;15.57;;;;;;;19.45;38.90;102043.84;5021707;28;20078;-67
2023/09/27 06:36:43;;;;;;;23.58;15.43;;;;;;;20.27;35.72;102026.53;5017966;28;20399;-66
2023/09/27 06:39:15;;;;;;;19.23;12.35;;;;;;;19.86;37.74;102021.94;5019881;28;20499;-66
2023/09/27 06:41:45;;;;;;;22.15;13.98;;;;;;;19.50;38.54;102009.94;5020574;28;21086;-66
2023/09/27 06:44:12;;;;;;;20.17;13.95;;;;;;;19.30;37.82;102001.41;5004765;28;20511;-65
2023/09/27 06:46:39;;;;;;;17.98;14.57;;;;;;;18.51;39.04;102004.16;5019201;28;20048;-66
2023/09/27 06:49:04;;;;;;;16.42;14.43;;;;;;;17.29;40.65;101999.16;5020979;28;20055;-67
2023/09/27 06:51:32;;;;;;;23.45;15.38;;;;;;;16.73;42.59;101993.09;5008774;28;20040;-66
2023/09/27 06:53:59;;;;;;;22.88;15.20;;;;;;;16.94;43.42;101991.19;5021245;28;20049;-67
2023/09/27 06:56:25;;;;;;;17.45;14.93;;;;;;;17.17;42.99;102000.63;5018034;28;20361;-67
2023/09/27 06:58:51;;;;;;;19.45;14.68;;;;;;;17.10;43.82;101988.66;5019230;28;20525;-66
2023/09/27 07:01:18;;;;;;;18.25;14.80;;;;;;;17.21;43.44;102009.25;5043246;28;20040;-66
2023/09/27 07:03:43;;;;;;;19.67;13.73;;;;;;;16.96;43.87;102014.91;5019145;28;20036;-66
2023/09/27 07:06:12;;;;;;;20.50;14.07;;;;;;;16.81;44.19;102022.63;5030756;28;20470;-66
2023/09/27 07:08:37;;;;;;;20.25;14.90;;;;;;;16.76;44.71;102018.50;5023008;28;20044;-66
2023/09/27 07:11:05;;;;;;;18.50;14.50;;;;;;;16.67;44.91;102018.94;5021998;28;20033;-67
2023/09/27 07:13:31;;;;;;;19.90;14.70;;;;;;;16.97;44.90;102016.59;5018503;28;20686;-67
2023/09/27 07:15:57;;;;;;;19.67;15.73;;;;;;;17.15;44.61;102009.56;5039657;28;20044;-66
2023/09/27 07:18:24;;;;;;;23.27;14.85;;;;;;;17.93;42.39;102013.47;5024591;28;20044;-66
2023/09/27 07:20:50;;;;;;;20.58;14.93;;;;;;;17.79;42.17;102016.84;5023548;28;20620;-66
2023/09/27 07:23:16;;;;;;;16.58;12.85;;;;;;;18.22;41.81;102016.38;5022362;28;20148;-67
2023/09/27 07:25:43;;;;;;;16.73;13.93;;;;;;;19.03;40.83;102016.25;5024051;28;20067;-65
2023/09/27 07:28:08;;;;;;;20.20;13.65;;;;;;;18.76;40.32;102018.69;5021225;28;20090;-65
2023/09/27 07:30:34;;;;;;;17.48;14.85;;;;;;;17.56;43.20;102020.72;5021675;28;20543;-65
2023/09/27 07:33:00;;;;;;;20.92;14.35;;;;;;;17.00;43.63;102011.16;5020283;28;20047;-67
2023/09/27 07:35:29;;;;;;;25.08;16.60;;;;;;;16.92;45.37;102027.38;5021380;28;20130;-66
2023/09/27 07:37:55;;;;;;;20.98;15.38;;;;;;;17.01;45.42;102028.72;5021834;28;20056;-65
2023/09/27 07:40:21;;;;;;;19.05;15.38;;;;;;;17.21;44.98;102025.94;5043343;28;20102;-65
2023/09/27 07:42:48;;;;;;;21.52;15.80;;;;;;;17.41;43.92;102024.94;5015889;28;20044;-66
2023/09/27 07:45:28;;;;;;;18.55;14.23;;;;;;;18.16;42.16;102029.91;5024537;28;20490;-66
2023/09/27 07:47:54;;;;;;;19.63;13.13;;;;;;;18.59;42.81;102024.94;5019648;28;20194;-66
2023/09/27 07:50:27;;;;;;;16.90;13.98;;;;;;;18.81;41.65;102009.53;5021248;28;20030;-65
2023/09/27 07:52:57;;;;;;;20.33;13.95;;;;;;;18.37;40.94;102007.59;5021098;28;20095;-68
2023/09/27 07:55:23;;;;;;;17.50;12.73;;;;;;;18.07;43.38;102012.72;5025017;28;20033;-66
2023/09/27 07:57:52;;;;;;;15.88;13.35;;;;;;;18.71;42.32;102011.00;5017378;28;20762;-66
2023/09/27 08:00:23;;;;;;;19.27;14.55;;;;;;;19.34;40.28;102014.47;5022922;28;20100;-65
2023/09/27 08:02:50;;;;;;;16.10;12.88;;;;;;;18.86;41.07;102015.41;5021078;28;20049;-66
2023/09/27 08:05:16;;;;;;;21.83;14.13;;;;;;;18.25;42.13;102029.41;5035853;28;20510;-66
2023/09/27 08:07:46;;;;;;;18.83;12.70;;;;;;;18.26;42.78;102025.84;5016785;28;20044;-68
2023/09/27 08:10:12;;;;;;;20.83;15.60;;;;;;;18.15;42.49;102029.03;5024967;28;20145;-66
2023/09/27 08:12:39;;;;;;;20.30;14.15;;;;;;;18.64;42.10;102028.19;5015864;28;20491;-66
2023/09/27 08:15:06;;;;;;;16.25;14.07;;;;;;;20.67;39.04;102045.22;5036128;28;20057;-67
2023/09/27 08:17:32;;;;;;;17.25;13.20;;;;;;;20.32;37.49;102035.88;5017990;28;20092;-66
2023/09/27 08:19:58;;;;;;;23.95;15.13;;;;;;;20.79;38.10;102036.44;5026376;28;20043;-65
2023/09/27 08:22:24;;;;;;;14.13;11.43;;;;;;;22.20;35.72;102033.16;5023817;28;20473;-65
2023/09/27 08:24:49;;;;;;;19.70;13.05;;;;;;;22.45;35.28;102024.22;5017986;28;20041;-66
2023/09/27 08:27:16;;;;;;;18.25;12.52;;;;;;;21.80;35.76;102025.28;5033619;28;20044;-66
2023/09/27 08:29:42;;;;;;;18.80;14.27;;;;;;;20.19;38.28;102028.75;5022083;28;20068;-66
2023/09/27 08:32:08;;;;;;;15.15;12.70;;;;;;;19.58;40.68;102028.94;5040659;28;20066;-66
2023/09/27 08:34:34;;;;;;;21.17;14.63;;;;;;;18.85;42.13;102029.63;5016048;28;20040;-66
2023/09/27 08:37:00;;;;;;;21.38;15.63;;;;;;;18.25;43.07;102029.41;5040278;28;20107;-65
2023/09/27 08:39:30;;;;;;;18.63;13.60;;;;;;;17.96;44.19;102038.91;5040191;28;20672;-67
2023/09/27 08:41:58;;;;;;;20.42;15.00;;;;;;;18.02;43.90;102044.72;5019519;28;20106;-65
2023/09/27 08:44:24;;;;;;;19.65;14.93;;;;;;;18.35;43.88;102051.81;5019869;28;20632;-66
2023/09/27 08:46:54;;;;;;;21.65;16.77;;;;;;;18.20;44.12;102057.94;5017206;28;20110;-66
2023/09/27 08:49:20;;;;;;;20.83;15.70;;;;;;;17.83;45.71;102057.22;5020185;28;20025;-66
2023/09/27 08:51:46;;;;;;;25.02;16.20;;;;;;;18.29;44.35;102068.03;5019351;28;20029;-67
2023/09/27 08:54:16;;;;;;;21.67;16.17;;;;;;;18.34;44.31;102066.00;5017758;28;20036;-65
2023/09/27 08:56:47;;;;;;;20.70;14.98;;;;;;;18.99;43.85;102059.78;5020233;28;20039;-67
2023/09/27 08:59:13;;;;;;;20.30;14.52;;;;;;;19.45;41.44;102062.41;5022690;28;20647;-67
2023/09/27 09:01:43;;;;;;;16.98;13.80;;;;;;;20.19;41.87;102068.56;5018239;28;20063;-67
2023/09/27 09:04:08;;;;;;;22.70;14.45;;;;;;;21.03;39.42;102057.06;5018905;28;20045;-65
2023/09/27 09:06:37;;;;;;;15.93;12.77;;;;;;;21.26;38.95;102059.03;5018068;28;20106;-66
2023/09/27 09:09:11;;;;;;;16.73;13.23;;;;;;;21.49;39.25;102049.56;5003722;28;20041;-67
2023/09/27 09:11:48;;;;;;;19.58;14.57;;;;;;;21.63;37.81;102037.97;5018825;28;20067;-66
2023/09/27 09:14:17;;;;;;;18.60;13.38;;;;;;;22.42;37.60;102043.94;5017340;28;21957;-66
2023/09/27 09:16:52;;;;;;;23.17;13.55;;;;;;;22.39;37.65;102030.88;5039504;28;20833;-68
2023/09/27 09:19:22;;;;;;;15.82;11.77;;;;;;;22.37;37.96;102038.13;5018277;28;20045;-66
2023/09/27 09:22:00;;;;;;;14.30;11.60;;;;;;;22.34;37.02;102041.00;5015413;28;20608;-66
2023/09/27 09:24:26;;;;;;;16.98;12.20;;;;;;;22.63;38.25;102033.56;5018081;28;20029;-66
2023/09/27 09:27:13;;;;;;;17.58;12.98;;;;;;;22.61;38.06;102032.81;5021772;28;20535;-67
2023/09/27 09:29:53;;;;;;;16.45;13.52;;;;;;;22.20;38.05;102025.16;5016729;28;20458;-66
2023/09/27 09:32:20;;;;;;;18.45;15.00;;;;;;;22.00;38.43;102016.75;5017468;28;20128;-66
2023/09/27 09:34:48;;;;;;;13.95;11.57;;;;;;;22.55;38.12;102027.94;5019267;28;20407;-67
2023/09/27 09:37:21;;;;;;;14.00;10.02;;;;;;;23.33;36.50;102026.63;5019446;28;20041;-67
2023/09/27 09:39:49;;;;;;;18.05;12.35;;;;;;;23.78;34.74;102027.53;5017715;28;20033;-67
2023/09/27 09:42:33;;;;;;;17.92;12.55;;;;;;;22.63;37.68;102030.03;5004684;28;20052;-66
2023/09/27 09:45:10;;;;;;;17.67;12.02;;;;;;;22.47;37.82;102031.16;5007632;28;20036;-66
2023/09/27 09:47:39;;;;;;;17.35;11.93;;;;;;;22.13;38.06;102028.25;5016562;28;20045;-67
2023/09/27 09:50:16;;;;;;;19.48;11.80;;;;;;;22.00;39.32;102038.03;5019881;28;20049;-66
2023/09/27 09:52:49;;;;;;;16.40;11.82;;;;;;;22.18;38.67;102047.44;5016065;28;20044;-66
2023/09/27 09:55:19;;;;;;;15.85;11.20;;;;;;;22.78;37.78;102050.25;5017464;28;20024;-66
2023/09/27 09:57:48;;;;;;;15.25;11.00;;;;;;;22.84;37.40;102055.13;5012628;28;20071;-67
2023/09/27 10:00:25;;;;;;;11.32;9.65;;;;;;;23.10;38.84;102052.34;5018942;28;20048;-67
2023/09/27 10:02:58;;;;;;;13.82;9.68;;;;;;;23.86;36.08;102047.47;5013340;28;20044;-66
2023/09/27 10:05:25;;;;;;;16.05;8.35;;;;;;;23.96;35.86;102049.28;5016819;28;20043;-66
2023/09/27 10:07:51;;;;;;;13.63;9.13;;;;;;;23.60;36.72;102047.66;5028007;28;20049;-66
2023/09/27 10:10:21;;;;;;;14.38;10.13;;;;;;;23.57;36.61;102055.91;5021535;28;20037;-67
2023/09/27 10:12:50;;;;;;;15.00;9.55;;;;;;;23.97;36.23;102050.16;5017482;28;20040;-68
2023/09/27 10:15:20;;;;;;;14.90;9.35;;;;;;;23.83;36.25;102061.84;5036811;28;20078;-68
2023/09/27 10:17:46;;;;;;;14.23;9.30;;;;;;;23.54;36.79;102064.13;5014387;28;20052;-68
2023/09/27 10:20:14;;;;;;;14.48;9.93;;;;;;;22.81;37.38;102066.03;5018500;28;20033;-67
2023/09/27 10:22:41;;;;;;;17.35;8.77;;;;;;;22.79;37.81;102062.63;5014522;28;20056;-68
2023/09/27 10:25:31;;;;;;;15.25;9.32;;;;;;;22.73;38.06;102063.06;5017611;28;20033;-68
2023/09/27 10:28:00;;;;;;;12.50;9.00;;;;;;;22.31;39.83;102060.69;5015468;28;20037;-68
2023/09/27 10:30:27;;;;;;;12.27;8.88;;;;;;;22.82;38.91;102065.06;5020249;28;20040;-67
2023/09/27 10:33:15;;;;;;;11.02;9.02;;;;;;;23.46;37.77;102066.56;5019144;28;20060;-67
2023/09/27 10:36:05;;;;;;;11.07;8.57;;;;;;;23.69;37.04;102062.94;5018043;28;20089;-67
2023/09/27 10:38:53;;;;;;;11.38;8.30;;;;;;;22.72;37.99;102064.88;5018651;28;20049;-66
2023/09/27 10:41:42;;;;;;;14.85;8.45;;;;;;;22.69;38.44;102073.09;5009193;28;20573;-68
2023/09/27 10:44:07;;;;;;;10.70;7.45;;;;;;;22.78;39.02;102071.56;5019443;28;20049;-68
2023/09/27 10:46:43;;;;;;;15.48;10.05;;;;;;;22.86;38.94;102069.19;5019781;28;20114;-68
2023/09/27 10:49:09;;;;;;;11.75;8.98;;;;;;;22.94;38.55;102066.81;5021917;28;20064;-68
2023/09/27 10:51:35;;;;;;;13.13;8.50;;;;;;;23.14;38.10;102056.47;5020651;28;20123;-68
2023/09/27 10:54:10;;;;;;;11.63;8.10;;;;;;;23.57;36.87;102048.75;5021495;28;20435;-68
2023/09/27 10:56:41;;;;;;;10.15;7.57;;;;;;;23.37;37.72;102047.59;5020007;28;20174;-68
2023/09/27 10:59:07;;;;;;;13.25;7.93;;;;;;;23.21;37.19;102036.38;5020365;28;20067;-68
2023/09/27 11:01:33;;;;;;;11.88;8.63;;;;;;;23.35;36.94;102033.53;5021583;28;20128;-67
2023/09/27 11:04:05;;;;;;;12.75;8.55;;;;;;;22.99;37.87;102031.81;5018935;28;20129;-66
2023/09/27 11:06:31;;;;;;;10.60;7.40;;;;;;;22.70;38.49;102028.66;5023402;28;20048;-67
2023/09/27 11:09:08;;;;;;;11.75;8.27;;;;;;;22.89;38.30;102007.66;5019032;28;21213;-66
2023/09/27 11:11:36;;;;;;;15.23;8.63;;;;;;;23.07;37.76;102002.75;5019940;28;20033;-67